Time;durP1;ratioP1;P1;durP2;ratioP2;P2;SDS_P1;SDS_P2;PMS_P1;PMS_P2;Temp;Humidity;BMP_temperature;BMP_pressure;BME280_temperature;BME280_humidity;BME280_pressure;Samples;Min_cycle;Max_cycle;Signal;HPM_P1;HPM_P2
2022/11/24 00:01:23;;;;;;;6.50;4.67;;;;;;;5.47;100.00;96026.31;4962492;28;20188;-65
2022/11/24 00:04:06;;;;;;;9.50;5.13;;;;;;;5.46;100.00;96032.56;4984905;28;20194;-66
2022/11/24 00:06:34;;;;;;;9.53;5.20;;;;;;;5.53;100.00;96026.28;4990883;28;20692;-65
2022/11/24 00:08:59;;;;;;;6.67;5.10;;;;;;;5.56;100.00;96025.88;4992469;28;20242;-65
2022/11/24 00:11:28;;;;;;;8.37;5.47;;;;;;;5.58;100.00;96034.22;4985216;28;20212;-64
2022/11/24 00:13:53;;;;;;;10.57;4.80;;;;;;;5.57;100.00;96024.06;4988167;28;20184;-65
2022/11/24 00:16:41;;;;;;;13.67;5.30;;;;;;;5.63;100.00;96023.97;4992642;28;20258;-65
2022/11/24 00:19:08;;;;;;;11.83;5.60;;;;;;;5.72;100.00;96021.91;4992459;28;20191;-65
2022/11/24 00:21:35;;;;;;;10.53;5.53;;;;;;;5.66;100.00;96030.56;4981005;28;20193;-65
2022/11/24 00:24:00;;;;;;;11.43;5.43;;;;;;;5.71;100.00;96035.91;4978421;28;20192;-65
2022/11/24 00:26:31;;;;;;;10.53;5.70;;;;;;;5.79;100.00;96025.25;4973596;28;20184;-64
2022/11/24 00:28:59;;;;;;;10.17;5.33;;;;;;;5.72;100.00;96035.72;4973114;28;20701;-65
2022/11/24 00:31:31;;;;;;;14.73;5.90;;;;;;;5.83;100.00;96035.00;4986021;28;20537;-65
2022/11/24 00:33:58;;;;;;;7.90;5.70;;;;;;;5.79;100.00;96030.44;4990781;28;20189;-65
2022/11/24 00:36:26;;;;;;;12.63;6.80;;;;;;;5.82;100.00;96040.41;4979793;28;20181;-65
2022/11/24 00:38:56;;;;;;;15.13;6.10;;;;;;;5.92;100.00;96042.53;4965320;28;20236;-66
2022/11/24 00:41:23;;;;;;;11.43;5.00;;;;;;;5.93;100.00;96047.53;4989186;28;20271;-66
2022/11/24 00:43:48;;;;;;;15.37;5.90;;;;;;;6.02;100.00;96053.25;4996104;28;20286;-65
2022/11/24 00:46:14;;;;;;;10.30;6.13;;;;;;;5.98;100.00;96045.09;4993070;28;20680;-65
2022/11/24 00:48:39;;;;;;;18.50;7.93;;;;;;;5.97;100.00;96045.28;4976938;28;20634;-65
2022/11/24 00:51:07;;;;;;;11.70;6.97;;;;;;;6.05;100.00;96058.03;4985882;28;20242;-64
2022/11/24 00:53:33;;;;;;;8.27;5.23;;;;;;;5.90;100.00;96060.97;4995212;28;20202;-65
2022/11/24 00:55:58;;;;;;;11.70;6.70;;;;;;;5.95;100.00;96066.34;4995611;28;20188;-64
2022/11/24 00:58:24;;;;;;;12.50;6.13;;;;;;;5.94;100.00;96058.72;4977582;28;20197;-64
2022/11/24 01:00:50;;;;;;;9.27;5.40;;;;;;;5.86;100.00;96065.75;4975509;28;20185;-65
2022/11/24 01:03:17;;;;;;;11.97;5.53;;;;;;;5.82;100.00;96075.00;4976600;28;20215;-65
2022/11/24 01:05:42;;;;;;;11.40;5.47;;;;;;;5.72;100.00;96072.09;4976563;28;20190;-65
2022/11/24 01:08:08;;;;;;;9.83;5.87;;;;;;;5.76;100.00;96075.06;4993594;28;20199;-65
2022/11/24 01:10:34;;;;;;;9.80;6.50;;;;;;;5.72;100.00;96079.09;4977950;28;20179;-65
2022/11/24 01:13:00;;;;;;;13.23;6.47;;;;;;;5.60;100.00;96089.41;4977708;28;20545;-66
2022/11/24 01:15:26;;;;;;;11.93;7.60;;;;;;;5.53;100.00;96077.47;4976856;28;20181;-65
2022/11/24 01:17:51;;;;;;;11.80;6.90;;;;;;;5.56;100.00;96095.25;4990363;28;20540;-66
2022/11/24 01:20:17;;;;;;;9.90;6.67;;;;;;;5.42;100.00;96095.31;4995484;28;20554;-65
2022/11/24 01:22:42;;;;;;;7.10;6.47;;;;;;;5.43;100.00;96096.13;4995154;28;20219;-65
2022/11/24 01:25:11;;;;;;;11.53;5.60;;;;;;;5.42;100.00;96100.53;4994765;28;20707;-65
2022/11/24 01:27:37;;;;;;;9.13;4.83;;;;;;;5.42;100.00;96100.53;4983141;28;20224;-65
2022/11/24 01:30:05;;;;;;;11.30;6.13;;;;;;;5.46;100.00;96094.94;4975821;28;20236;-65
2022/11/24 01:32:32;;;;;;;9.93;5.17;;;;;;;5.46;100.00;96100.91;4960399;28;20235;-65
2022/11/24 01:34:58;;;;;;;10.93;5.07;;;;;;;5.39;100.00;96108.75;4975735;28;20189;-64
2022/11/24 01:37:23;;;;;;;7.23;4.50;;;;;;;5.35;100.00;96107.56;4985391;28;20188;-65
2022/11/24 01:39:48;;;;;;;12.07;5.77;;;;;;;5.29;100.00;96113.63;4981915;28;20656;-65
2022/11/24 01:42:14;;;;;;;10.37;4.83;;;;;;;5.28;100.00;96111.22;4978192;28;20185;-65
2022/11/24 01:44:41;;;;;;;11.73;5.37;;;;;;;5.43;100.00;96115.13;4994274;28;20184;-64
2022/11/24 01:47:32;;;;;;;7.67;4.53;;;;;;;5.34;100.00;96111.19;4985652;28;20572;-64
2022/11/24 01:50:01;;;;;;;7.60;4.97;;;;;;;5.50;100.00;96115.06;4991289;28;20323;-64
2022/11/24 01:52:29;;;;;;;6.90;4.90;;;;;;;5.60;100.00;96117.19;4994574;28;20196;-65
2022/11/24 01:55:00;;;;;;;7.67;5.37;;;;;;;5.58;100.00;96122.59;4993234;28;20540;-64
2022/11/24 01:57:31;;;;;;;9.47;5.63;;;;;;;5.73;100.00;96125.69;4983317;28;20217;-65
2022/11/24 02:00:03;;;;;;;9.10;4.90;;;;;;;5.65;100.00;96122.56;4985156;28;20180;-65
2022/11/24 02:02:29;;;;;;;11.00;4.80;;;;;;;5.66;100.00;96124.16;4956728;28;20197;-65
2022/11/24 02:04:59;;;;;;;10.13;4.83;;;;;;;5.57;100.00;96128.03;4980258;28;20532;-65
2022/11/24 02:07:25;;;;;;;12.50;7.77;;;;;;;5.57;100.00;96130.63;4989637;28;20683;-66
2022/11/24 02:09:55;;;;;;;13.63;6.93;;;;;;;5.49;100.00;96128.28;4982559;28;20192;-65
2022/11/24 02:12:23;;;;;;;10.73;6.00;;;;;;;5.73;100.00;96132.69;4986855;28;20214;-64
2022/11/24 02:14:49;;;;;;;8.03;5.13;;;;;;;5.83;100.00;96133.00;4994401;28;20195;-65
2022/11/24 02:17:14;;;;;;;6.53;5.20;;;;;;;5.84;100.00;96135.41;4992795;28;20227;-65
2022/11/24 02:19:40;;;;;;;9.10;5.70;;;;;;;5.78;100.00;96131.06;4980351;28;20184;-66
2022/11/24 02:22:17;;;;;;;10.97;4.93;;;;;;;5.76;100.00;96132.25;4974732;28;20663;-66
2022/11/24 02:24:54;;;;;;;7.00;5.10;;;;;;;5.72;100.00;96141.50;4994058;28;20176;-65
2022/11/24 02:27:19;;;;;;;9.83;5.53;;;;;;;5.69;100.00;96136.72;4982483;28;20192;-66
2022/11/24 02:29:45;;;;;;;8.13;5.73;;;;;;;5.65;100.00;96135.56;4975252;28;20228;-66
2022/11/24 02:32:11;;;;;;;7.20;5.63;;;;;;;5.58;100.00;96140.78;4974944;28;20596;-65
2022/11/24 02:34:37;;;;;;;7.27;5.47;;;;;;;5.50;100.00;96145.47;4974962;28;20188;-65
2022/11/24 02:37:02;;;;;;;9.90;6.70;;;;;;;5.51;100.00;96139.25;4990579;28;20657;-65
2022/11/24 02:39:28;;;;;;;13.20;6.57;;;;;;;5.45;100.00;96140.91;4977741;28;20641;-65
2022/11/24 02:41:58;;;;;;;9.17;6.07;;;;;;;5.47;100.00;96138.06;4977012;28;20196;-65
2022/11/24 02:44:29;;;;;;;8.37;5.53;;;;;;;5.42;100.00;96138.69;4995662;28;20194;-67
2022/11/24 02:47:02;;;;;;;12.57;5.60;;;;;;;5.41;100.00;96135.31;4985342;28;20207;-64
2022/11/24 02:49:28;;;;;;;9.47;5.10;;;;;;;5.41;100.00;96135.31;4990372;28;20184;-66
2022/11/24 02:51:53;;;;;;;7.13;4.60;;;;;;;5.31;100.00;96142.78;4993088;28;20283;-65
2022/11/24 02:54:18;;;;;;;6.60;5.07;;;;;;;5.25;100.00;96143.59;4979057;28;20192;-66
2022/11/24 02:56:44;;;;;;;6.37;4.70;;;;;;;5.23;100.00;96148.22;4963228;28;20191;-65
2022/11/24 02:59:09;;;;;;;9.00;4.60;;;;;;;5.17;100.00;96143.88;4981209;28;20219;-65
2022/11/24 03:01:34;;;;;;;5.93;5.10;;;;;;;5.06;100.00;96146.31;4969721;28;20196;-65
2022/11/24 03:04:00;;;;;;;9.33;5.03;;;;;;;5.07;100.00;96143.50;4993602;28;20187;-66
2022/11/24 03:06:25;;;;;;;6.80;4.87;;;;;;;5.12;100.00;96156.69;4990722;28;20190;-66
2022/11/24 03:08:50;;;;;;;9.57;5.37;;;;;;;5.13;100.00;96154.84;4984848;28;20189;-65
2022/11/24 03:11:15;;;;;;;5.70;4.33;;;;;;;5.06;100.00;96159.31;4974005;28;20207;-65
2022/11/24 03:13:41;;;;;;;6.33;4.80;;;;;;;5.02;100.00;96158.91;4973847;28;20545;-64
2022/11/24 03:16:09;;;;;;;8.70;4.90;;;;;;;5.03;100.00;96160.50;4974347;28;20637;-65
2022/11/24 03:18:34;;;;;;;8.47;5.20;;;;;;;4.98;100.00;96155.94;4974365;28;20177;-66
2022/11/24 03:20:59;;;;;;;8.63;5.10;;;;;;;4.95;100.00;96161.56;4974437;28;20192;-65
2022/11/24 03:23:25;;;;;;;8.63;4.90;;;;;;;5.08;100.00;96152.09;4985204;28;20190;-65
2022/11/24 03:25:50;;;;;;;6.93;5.40;;;;;;;5.11;100.00;96165.47;4992576;28;20184;-66
2022/11/24 03:28:15;;;;;;;6.23;5.43;;;;;;;5.07;100.00;96163.50;4974003;28;20204;-64
2022/11/24 03:30:41;;;;;;;9.33;5.93;;;;;;;5.10;100.00;96166.47;4956405;28;20558;-65
2022/11/24 03:33:06;;;;;;;5.67;5.27;;;;;;;5.07;100.00;96166.88;4973846;28;20705;-65
2022/11/24 03:35:31;;;;;;;7.73;5.50;;;;;;;5.03;100.00;96166.50;4956815;28;20221;-67
2022/11/24 03:37:57;;;;;;;10.00;6.73;;;;;;;4.98;100.00;96168.91;4990004;28;20202;-66
2022/11/24 03:40:22;;;;;;;10.23;6.57;;;;;;;5.00;100.00;96173.91;4993190;28;20629;-66
2022/11/24 03:42:47;;;;;;;7.90;5.77;;;;;;;4.96;100.00;96176.09;4984991;28;20653;-65
2022/11/24 03:45:13;;;;;;;9.80;5.77;;;;;;;4.99;100.00;96174.91;4972715;28;20216;-65
2022/11/24 03:47:39;;;;;;;7.40;6.00;;;;;;;4.98;100.00;96181.91;4987912;28;20656;-65
2022/11/24 03:50:05;;;;;;;6.50;5.93;;;;;;;4.99;100.00;96185.28;4976479;28;20243;-67
2022/11/24 03:52:30;;;;;;;6.10;4.83;;;;;;;5.06;100.00;96182.69;4973841;28;20606;-66
2022/11/24 03:54:55;;;;;;;7.47;5.70;;;;;;;4.97;100.00;96185.50;4973688;28;20272;-66
2022/11/24 03:57:21;;;;;;;6.10;5.57;;;;;;;4.96;100.00;96180.50;4974384;28;20196;-65
2022/11/24 03:59:46;;;;;;;7.13;5.93;;;;;;;4.99;100.00;96190.50;4970608;28;20205;-65
2022/11/24 04:02:11;;;;;;;6.67;6.00;;;;;;;5.09;100.00;96190.84;4974025;28;20192;-65
2022/11/24 04:04:37;;;;;;;14.27;6.53;;;;;;;5.06;100.00;96196.47;4973630;28;20193;-66
2022/11/24 04:07:02;;;;;;;7.33;5.90;;;;;;;4.94;100.00;96192.91;4976920;28;20196;-66
2022/11/24 04:09:27;;;;;;;5.77;5.23;;;;;;;4.99;100.00;96193.09;4977699;28;20223;-66
2022/11/24 04:14:37;;;;;;;9.43;5.40;;;;;;;4.93;100.00;96199.91;4995352;28;20652;-66
2022/11/24 04:17:03;;;;;;;9.73;5.67;;;;;;;4.84;100.00;96206.34;4982521;28;20189;-66
2022/11/24 04:19:28;;;;;;;8.53;5.90;;;;;;;4.86;100.00;96206.09;4977547;28;20199;-67
2022/11/24 04:21:54;;;;;;;9.67;5.57;;;;;;;4.83;100.00;96209.94;4978475;28;20197;-65
2022/11/24 04:24:19;;;;;;;9.70;5.83;;;;;;;4.95;100.00;96210.09;4977519;28;20199;-66
2022/11/24 04:26:44;;;;;;;7.23;5.03;;;;;;;4.88;100.00;96215.28;4978858;28;20189;-66
2022/11/24 04:29:10;;;;;;;13.67;6.07;;;;;;;4.89;100.00;96216.09;4977089;28;20283;-65
2022/11/24 04:31:35;;;;;;;8.53;5.97;;;;;;;4.92;100.00;96224.25;4979727;28;20192;-65
2022/11/24 04:34:00;;;;;;;9.33;6.03;;;;;;;4.91;100.00;96225.25;4977181;28;20631;-66
2022/11/24 04:36:26;;;;;;;10.57;6.43;;;;;;;4.95;100.00;96217.88;4977758;28;20193;-66
2022/11/24 04:38:52;;;;;;;7.93;6.60;;;;;;;4.99;100.00;96224.25;4977030;28;20231;-66
2022/11/24 04:41:18;;;;;;;14.67;7.27;;;;;;;5.04;100.00;96221.84;4979119;28;20216;-66
2022/11/24 04:43:43;;;;;;;9.37;6.30;;;;;;;5.08;100.00;96225.59;4995871;28;20211;-65
2022/11/24 04:46:10;;;;;;;7.77;6.07;;;;;;;4.99;100.00;96226.84;4986904;28;20212;-66
2022/11/24 04:48:35;;;;;;;14.80;6.23;;;;;;;5.03;100.00;96225.44;4994459;28;20219;-65
2022/11/24 04:51:04;;;;;;;17.37;6.17;;;;;;;5.01;100.00;96225.63;4996909;28;20216;-65
2022/11/24 04:53:30;;;;;;;11.37;6.87;;;;;;;5.10;100.00;96236.59;4976969;28;20185;-65
2022/11/24 04:55:55;;;;;;;12.27;5.97;;;;;;;5.03;100.00;96244.41;4983713;28;20283;-65
2022/11/24 04:58:20;;;;;;;12.33;6.13;;;;;;;5.08;100.00;96248.19;4995801;28;20203;-67
2022/11/24 05:00:45;;;;;;;13.33;5.63;;;;;;;4.98;100.00;96246.03;4982477;28;20189;-65
2022/11/24 05:03:11;;;;;;;11.57;5.40;;;;;;;5.02;100.00;96244.59;4977031;28;20575;-65
2022/11/24 05:05:36;;;;;;;10.13;5.40;;;;;;;5.06;100.00;96239.81;4981151;28;20207;-65
2022/11/24 05:08:02;;;;;;;11.37;5.13;;;;;;;5.06;100.00;96229.44;4978192;28;20661;-66
2022/11/24 05:10:36;;;;;;;8.90;5.20;;;;;;;5.00;100.00;96234.44;4976535;28;20615;-65
2022/11/24 05:13:12;;;;;;;12.63;5.33;;;;;;;4.95;100.00;96238.66;4992057;28;20210;-66
2022/11/24 05:15:40;;;;;;;11.50;5.73;;;;;;;4.99;100.00;96243.22;4995760;28;20188;-67
2022/11/24 05:18:14;;;;;;;11.13;5.63;;;;;;;4.97;100.00;96244.41;4978283;28;20195;-64
2022/11/24 05:20:39;;;;;;;10.00;5.20;;;;;;;4.98;100.00;96235.63;4980749;28;20180;-64
2022/11/24 05:23:06;;;;;;;9.70;4.60;;;;;;;4.89;100.00;96234.28;4976551;28;20199;-65
2022/11/24 05:25:35;;;;;;;8.13;5.23;;;;;;;4.90;100.00;96233.28;4976343;28;20264;-65
2022/11/24 05:28:02;;;;;;;9.47;5.70;;;;;;;4.91;100.00;96247.81;4992794;28;20214;-65
2022/11/24 05:30:28;;;;;;;10.07;5.73;;;;;;;4.84;100.00;96245.28;4983475;28;20293;-64
2022/11/24 05:32:53;;;;;;;11.10;5.47;;;;;;;4.85;100.00;96248.66;4975867;28;20200;-64
2022/11/24 05:35:20;;;;;;;5.93;5.23;;;;;;;4.86;100.00;96245.06;4976169;28;20192;-65
2022/11/24 05:37:46;;;;;;;13.43;7.03;;;;;;;4.92;100.00;96252.81;4957850;28;20244;-65
2022/11/24 05:40:12;;;;;;;12.97;5.67;;;;;;;4.89;100.00;96252.44;4977405;28;20200;-65
2022/11/24 05:42:39;;;;;;;10.93;5.27;;;;;;;4.87;100.00;96262.22;4993242;28;20194;-65
2022/11/24 05:45:08;;;;;;;7.70;5.60;;;;;;;4.83;100.00;96261.06;4994634;28;20188;-67
2022/11/24 05:47:33;;;;;;;11.87;5.17;;;;;;;4.93;100.00;96271.81;4994859;28;20271;-66
2022/11/24 05:49:59;;;;;;;12.10;5.03;;;;;;;4.90;100.00;96264.44;4994789;28;20624;-67
2022/11/24 05:52:24;;;;;;;11.20;5.60;;;;;;;4.92;100.00;96265.00;4983146;28;20204;-65
2022/11/24 05:54:49;;;;;;;9.03;6.67;;;;;;;4.95;100.00;96262.03;4995023;28;20176;-65
2022/11/24 05:57:16;;;;;;;8.83;6.50;;;;;;;4.89;100.00;96260.25;4977206;28;20617;-66
2022/11/24 05:59:41;;;;;;;10.70;5.50;;;;;;;4.91;100.00;96258.22;4988629;28;20279;-65
2022/11/24 06:02:08;;;;;;;8.07;5.30;;;;;;;5.04;100.00;96258.19;4983970;28;20748;-66
2022/11/24 06:04:34;;;;;;;13.10;5.93;;;;;;;5.07;100.00;96267.38;4983134;28;20190;-65
2022/11/24 06:06:59;;;;;;;8.57;5.33;;;;;;;5.09;100.00;96258.38;4983870;28;20196;-65
2022/11/24 06:09:25;;;;;;;13.07;6.10;;;;;;;5.10;100.00;96259.97;4975652;28;20188;-65
2022/11/24 06:11:50;;;;;;;9.77;5.40;;;;;;;5.16;100.00;96253.97;4986063;28;20212;-65
2022/11/24 06:14:15;;;;;;;8.33;5.63;;;;;;;5.19;100.00;96258.72;4994727;28;20196;-65
2022/11/24 06:16:41;;;;;;;11.70;5.97;;;;;;;5.11;100.00;96258.19;4994071;28;20196;-66
2022/11/24 06:19:06;;;;;;;6.80;5.57;;;;;;;5.16;100.00;96251.38;4994055;28;20601;-66
2022/11/24 06:21:31;;;;;;;14.67;5.80;;;;;;;5.23;100.00;96267.72;4966052;28;20641;-66
2022/11/24 06:23:57;;;;;;;11.47;5.40;;;;;;;5.29;100.00;96266.09;4982769;28;20196;-64
2022/11/24 06:26:22;;;;;;;7.60;5.60;;;;;;;5.25;100.00;96273.50;4989055;28;20181;-64
2022/11/24 06:28:48;;;;;;;11.67;5.77;;;;;;;5.31;100.00;96267.47;4974796;28;20602;-65
2022/11/24 06:31:13;;;;;;;10.23;5.73;;;;;;;5.24;100.00;96264.09;4977334;28;20250;-65
2022/11/24 06:33:39;;;;;;;12.10;6.70;;;;;;;5.21;100.00;96267.13;4994719;28;20183;-66
2022/11/24 06:36:07;;;;;;;11.13;5.77;;;;;;;5.29;100.00;96272.09;4974751;28;20554;-65
2022/11/24 06:38:34;;;;;;;10.80;9.87;;;;;;;5.29;100.00;96276.50;4974343;28;20189;-65
2022/11/24 06:41:07;;;;;;;11.37;5.53;;;;;;;5.38;100.00;96283.84;4980901;28;20212;-65
2022/11/24 06:43:34;;;;;;;11.60;5.60;;;;;;;5.51;100.00;96279.59;4974710;28;20204;-64
2022/11/24 06:46:00;;;;;;;11.57;5.53;;;;;;;5.63;100.00;96285.75;4974669;28;20192;-64
2022/11/24 06:48:26;;;;;;;13.40;4.77;;;;;;;5.71;100.00;96286.28;4986513;28;20230;-63
2022/11/24 06:50:52;;;;;;;9.83;5.10;;;;;;;5.69;100.00;96285.69;4969362;28;20192;-62
2022/11/24 06:53:18;;;;;;;12.10;5.70;;;;;;;5.76;100.00;96293.47;4992094;28;20576;-63
2022/11/24 06:55:45;;;;;;;8.90;4.73;;;;;;;5.82;100.00;96293.44;4978646;28;20268;-64
2022/11/24 06:58:10;;;;;;;13.60;5.57;;;;;;;5.87;100.00;96292.84;4974830;28;20272;-66
2022/11/24 07:00:36;;;;;;;7.30;4.20;;;;;;;5.89;100.00;96297.84;4984864;28;20280;-65
2022/11/24 07:03:01;;;;;;;12.77;4.87;;;;;;;5.88;100.00;96299.63;4993423;28;20584;-63
2022/11/24 07:05:27;;;;;;;9.07;4.17;;;;;;;5.88;100.00;96307.44;4985283;28;20768;-64
2022/11/24 07:07:52;;;;;;;8.60;4.43;;;;;;;5.78;100.00;96315.66;4977222;28;20193;-64
2022/11/24 07:10:18;;;;;;;10.03;5.30;;;;;;;5.93;100.00;96319.81;4975702;28;20191;-63
2022/11/24 07:12:43;;;;;;;10.40;5.93;;;;;;;5.92;100.00;96323.41;4993266;28;20250;-64
2022/11/24 07:15:09;;;;;;;11.07;5.57;;;;;;;5.93;100.00;96323.22;4993133;28;20590;-64
2022/11/24 07:17:38;;;;;;;13.87;5.60;;;;;;;6.03;100.00;96327.94;4993318;28;20207;-64
2022/11/24 07:36:17;;;;;;;12.50;4.10;;;;;;;6.02;100.00;96362.81;4249758;23;20211;-64
2022/11/24 07:38:42;;;;;;;10.27;5.07;;;;;;;6.04;100.00;96376.38;4992824;28;20679;-65
2022/11/24 07:41:11;;;;;;;10.30;5.97;;;;;;;6.01;100.00;96385.41;4994274;28;20637;-67
2022/11/24 07:43:37;;;;;;;12.37;4.53;;;;;;;6.07;100.00;96389.78;5012617;28;20239;-66
2022/11/24 07:46:04;;;;;;;9.90;4.03;;;;;;;6.05;100.00;96397.00;4995008;28;20275;-66
2022/11/24 07:48:30;;;;;;;15.57;6.20;;;;;;;6.02;100.00;96389.59;5002725;28;20180;-66
2022/11/24 07:51:00;;;;;;;18.03;4.97;;;;;;;6.01;100.00;96390.63;4992653;28;20272;-67
2022/11/24 07:53:26;;;;;;;16.93;5.67;;;;;;;6.06;100.00;96403.00;4991647;28;20210;-68
2022/11/24 07:55:55;;;;;;;12.40;5.97;;;;;;;6.07;100.00;96399.38;5012369;28;20639;-67
2022/11/24 07:58:21;;;;;;;12.47;6.63;;;;;;;6.10;100.00;96411.97;4998952;28;20698;-67
2022/11/24 08:00:47;;;;;;;17.53;7.40;;;;;;;6.01;100.00;96410.63;4993481;28;20270;-67
2022/11/24 08:03:12;;;;;;;15.57;7.23;;;;;;;6.03;100.00;96403.38;4996240;28;20183;-67
2022/11/24 08:05:38;;;;;;;13.37;6.93;;;;;;;6.01;100.00;96403.63;5008512;28;20238;-67
2022/11/24 08:08:03;;;;;;;11.23;5.83;;;;;;;5.99;100.00;96415.22;4993186;28;20192;-68
2022/11/24 08:10:29;;;;;;;16.80;6.27;;;;;;;6.01;100.00;96408.81;4976230;28;20177;-69
2022/11/24 08:12:59;;;;;;;12.73;4.73;;;;;;;6.15;100.00;96401.72;4994410;28;20203;-67
2022/11/24 08:15:25;;;;;;;13.20;5.93;;;;;;;6.07;100.00;96402.78;5012900;28;20657;-72
2022/11/24 08:17:51;;;;;;;11.27;5.70;;;;;;;6.14;100.00;96400.94;5011208;28;20632;-70
2022/11/24 08:20:16;;;;;;;11.57;5.33;;;;;;;6.10;100.00;96401.56;4998936;28;20199;-69
2022/11/24 08:22:42;;;;;;;12.97;6.10;;;;;;;6.16;100.00;96401.53;4996013;28;20199;-68
2022/11/24 08:25:07;;;;;;;15.27;6.10;;;;;;;6.15;100.00;96396.53;5011948;28;20549;-67
2022/11/24 08:27:32;;;;;;;11.43;5.83;;;;;;;6.14;100.00;96402.72;5012275;28;20188;-68
2022/11/24 08:29:58;;;;;;;12.07;5.60;;;;;;;6.19;100.00;96413.31;4985718;28;20666;-68
2022/11/24 08:32:23;;;;;;;11.23;5.53;;;;;;;6.20;100.00;96415.72;5010026;28;20203;-67
2022/11/24 08:34:48;;;;;;;10.00;4.77;;;;;;;6.19;100.00;96415.91;5005172;28;20644;-68
2022/11/24 08:37:14;;;;;;;8.63;4.40;;;;;;;6.22;100.00;96421.53;4991589;28;20228;-70
2022/11/24 08:39:39;;;;;;;15.27;5.20;;;;;;;6.32;100.00;96433.28;5002051;28;20636;-70
2022/11/24 08:42:05;;;;;;;12.20;5.00;;;;;;;6.38;100.00;96435.06;4995560;28;20207;-70
2022/11/24 08:44:30;;;;;;;11.97;5.43;;;;;;;6.26;100.00;96435.72;4994799;28;20210;-69
2022/11/24 08:46:55;;;;;;;8.43;4.30;;;;;;;6.25;100.00;96441.13;4992754;28;20674;-69
2022/11/24 08:49:21;;;;;;;11.60;5.23;;;;;;;6.18;100.00;96435.97;5010976;28;20195;-71
2022/11/24 08:51:47;;;;;;;7.30;5.50;;;;;;;6.23;100.00;96445.75;5003927;28;20238;-69
2022/11/24 08:54:14;;;;;;;9.83;5.23;;;;;;;6.20;100.00;96441.75;5004234;28;20250;-69
2022/11/24 08:56:39;;;;;;;11.90;5.43;;;;;;;6.26;100.00;96440.91;4996040;28;20203;-68
2022/11/24 08:59:05;;;;;;;9.07;5.00;;;;;;;6.36;100.00;96448.25;4994978;28;20641;-68
2022/11/24 09:01:30;;;;;;;10.23;6.10;;;;;;;6.21;100.00;96443.34;5000783;28;20191;-67
2022/11/24 09:03:56;;;;;;;8.83;5.07;;;;;;;6.29;100.00;96444.91;5006450;28;20290;-67
2022/11/24 09:06:24;;;;;;;7.87;4.93;;;;;;;6.22;100.00;96437.13;5014832;28;20194;-67
2022/11/24 09:08:50;;;;;;;9.67;5.27;;;;;;;6.33;100.00;96448.69;5007585;28;20290;-67
2022/11/24 09:11:17;;;;;;;6.57;5.70;;;;;;;6.32;100.00;96446.28;4995659;28;20285;-67
2022/11/24 09:13:43;;;;;;;8.13;5.57;;;;;;;6.55;100.00;96451.78;5002644;28;20200;-67
2022/11/24 09:16:22;;;;;;;8.23;5.97;;;;;;;6.70;100.00;96457.47;4995612;28;20307;-67
2022/11/24 09:18:54;;;;;;;9.17;5.37;;;;;;;6.75;100.00;96449.84;5003574;28;20196;-67
2022/11/24 09:21:20;;;;;;;9.10;6.23;;;;;;;6.83;100.00;96447.00;4995542;28;20183;-67
2022/11/24 09:23:48;;;;;;;6.87;5.60;;;;;;;6.89;100.00;96455.78;5009103;28;20613;-66
2022/11/24 09:26:28;;;;;;;7.77;5.10;;;;;;;6.91;100.00;96462.34;5005073;28;20271;-66
2022/11/24 09:28:55;;;;;;;8.60;4.70;;;;;;;6.99;100.00;96461.31;5009742;28;20183;-66
2022/11/24 09:31:24;;;;;;;4.17;3.77;;;;;;;6.94;100.00;96466.34;4988806;28;20224;-64
2022/11/24 09:33:49;;;;;;;5.33;4.83;;;;;;;6.82;100.00;96474.03;4995276;28;20212;-66
2022/11/24 09:36:15;;;;;;;4.57;4.20;;;;;;;6.91;100.00;96472.78;5000154;28;20268;-65
2022/11/24 09:38:41;;;;;;;7.00;6.43;;;;;;;6.81;100.00;96482.06;5003412;28;20322;-65
2022/11/24 09:41:12;;;;;;;4.83;4.03;;;;;;;6.79;100.00;96499.72;5006520;28;20191;-66
2022/11/24 09:43:53;;;;;;;3.67;3.47;;;;;;;6.85;100.00;96489.28;5011362;28;20188;-65
2022/11/24 09:47:02;;;;;;;4.40;4.10;;;;;;;6.77;100.00;96502.53;4993172;28;20303;-65
2022/11/24 09:49:35;;;;;;;3.60;3.40;;;;;;;6.64;100.00;96494.78;4998343;28;20196;-65
2022/11/24 09:52:07;;;;;;;3.20;3.10;;;;;;;6.89;100.00;96508.66;5014344;28;20195;-64
2022/11/24 09:54:34;;;;;;;3.90;3.60;;;;;;;6.70;100.00;96504.34;5004881;28;20180;-65
2022/11/24 09:57:02;;;;;;;3.80;3.50;;;;;;;6.59;100.00;96512.84;4997992;28;20180;-65
2022/11/24 09:59:28;;;;;;;4.30;4.00;;;;;;;6.88;100.00;96514.88;4994815;28;20184;-65
2022/11/24 10:01:54;;;;;;;4.17;3.87;;;;;;;7.06;100.00;96509.75;4994886;28;20188;-65
2022/11/24 10:04:40;;;;;;;4.17;3.87;;;;;;;7.12;100.00;96523.75;4994165;28;20246;-65
2022/11/24 10:07:17;;;;;;;3.37;3.17;;;;;;;7.11;100.00;96514.34;5000536;28;20190;-65
2022/11/24 10:09:55;;;;;;;3.17;2.97;;;;;;;7.29;100.00;96519.63;5000340;28;20202;-66
2022/11/24 10:12:55;;;;;;;3.47;3.27;;;;;;;7.12;100.00;96522.97;5013106;28;20195;-66
2022/11/24 10:15:35;;;;;;;4.57;4.27;;;;;;;7.27;100.00;96524.25;4989916;28;20219;-65
2022/11/24 10:18:13;;;;;;;4.27;4.07;;;;;;;7.39;100.00;96522.56;4994669;28;20176;-66
2022/11/24 10:20:47;;;;;;;4.27;4.07;;;;;;;7.39;100.00;96517.34;5001948;28;20190;-65
2022/11/24 10:23:40;;;;;;;5.33;5.03;;;;;;;7.52;100.00;96522.44;5001570;28;20215;-66
2022/11/24 10:26:18;;;;;;;5.33;5.00;;;;;;;7.63;100.00;96517.53;5007860;28;20187;-67
2022/11/24 10:28:54;;;;;;;4.17;3.70;;;;;;;7.71;100.00;96523.28;5007315;28;20209;-67
2022/11/24 10:31:22;;;;;;;4.47;4.27;;;;;;;7.66;100.00;96525.72;4996584;28;20215;-65
2022/11/24 10:33:49;;;;;;;4.47;4.07;;;;;;;7.75;100.00;96526.25;5012005;28;20245;-66
2022/11/24 10:36:38;;;;;;;4.37;4.07;;;;;;;7.61;100.00;96522.16;4996758;28;20194;-65
2022/11/24 10:39:27;;;;;;;4.67;4.27;;;;;;;7.81;100.00;96520.16;4988564;28;20218;-65
2022/11/24 10:42:04;;;;;;;4.20;3.90;;;;;;;7.73;100.00;96533.50;4993835;28;20632;-65
2022/11/24 10:44:30;;;;;;;3.50;3.30;;;;;;;7.74;100.00;96520.25;4992953;28;20248;-66
2022/11/24 10:46:55;;;;;;;4.00;3.77;;;;;;;7.94;100.00;96520.03;4992681;28;20188;-66
2022/11/24 10:49:26;;;;;;;3.57;3.30;;;;;;;8.00;100.00;96527.00;4998410;28;20261;-68
2022/11/24 10:52:04;;;;;;;4.83;4.63;;;;;;;8.12;100.00;96527.91;4999101;28;20196;-67
2022/11/24 10:54:30;;;;;;;3.20;3.00;;;;;;;7.85;100.00;96531.78;4994076;28;20183;-68
2022/11/24 10:56:55;;;;;;;3.30;3.20;;;;;;;7.83;100.00;96529.38;4994017;28;20291;-66
2022/11/24 10:59:23;;;;;;;6.87;6.53;;;;;;;7.76;100.00;96530.44;4994778;28;20234;-64
2022/11/24 11:01:50;;;;;;;6.73;6.43;;;;;;;8.09;100.00;96527.50;4995489;28;20187;-65
2022/11/24 11:04:24;;;;;;;5.40;5.07;;;;;;;8.18;100.00;96527.03;5003654;28;20202;-65
2022/11/24 11:06:49;;;;;;;4.07;3.03;;;;;;;7.85;100.00;96527.38;5012365;28;20202;-66
2022/11/24 11:09:19;;;;;;;3.80;3.60;;;;;;;7.93;100.00;96534.09;5003130;28;20251;-65
2022/11/24 11:11:47;;;;;;;3.33;3.13;;;;;;;8.00;100.00;96529.63;4975897;28;20224;-64
2022/11/24 11:14:34;;;;;;;3.20;3.10;;;;;;;7.97;100.00;96530.03;5002021;28;20195;-64
2022/11/24 11:17:00;;;;;;;3.20;3.10;;;;;;;7.92;100.00;96533.31;5008845;28;20172;-66
2022/11/24 11:19:37;;;;;;;4.27;4.07;;;;;;;7.74;100.00;96535.91;4984673;28;20188;-66
2022/11/24 11:22:08;;;;;;;4.37;4.17;;;;;;;7.77;100.00;96537.28;4993444;28;20210;-65
2022/11/24 11:24:34;;;;;;;3.73;3.43;;;;;;;8.11;100.00;96528.91;5011312;28;20188;-66
2022/11/24 11:27:20;;;;;;;6.77;6.27;;;;;;;8.19;100.00;96531.22;4995650;28;20199;-65
2022/11/24 11:29:47;;;;;;;5.03;4.57;;;;;;;8.19;100.00;96525.22;4993666;28;20199;-67
2022/11/24 11:32:24;;;;;;;3.60;3.40;;;;;;;8.33;100.00;96537.13;4993328;28;20231;-65
2022/11/24 11:34:51;;;;;;;15.80;14.63;;;;;;;8.59;100.00;96530.78;4999971;28;20172;-65
2022/11/24 11:37:18;;;;;;;3.97;3.77;;;;;;;8.55;100.00;96527.03;5008891;28;20322;-65
2022/11/24 11:39:50;;;;;;;4.50;4.30;;;;;;;8.41;100.00;96536.06;5006068;28;20179;-66
2022/11/24 11:42:37;;;;;;;3.63;2.90;;;;;;;8.56;100.00;96529.44;4995151;28;20189;-65
2022/11/24 11:45:14;;;;;;;3.30;3.10;;;;;;;8.55;100.00;96532.25;4996870;28;20733;-66
2022/11/24 11:48:04;;;;;;;4.37;4.07;;;;;;;8.49;100.00;96531.31;4995794;28;20184;-64
2022/11/24 11:50:41;;;;;;;4.00;3.70;;;;;;;8.50;100.00;96535.53;4978492;28;20604;-65
2022/11/24 11:53:15;;;;;;;6.23;5.83;;;;;;;8.42;100.00;96540.22;4995280;28;20237;-66